createdAt,value
2018-10-19T00:00:31.367Z,16.58
2018-10-19T00:01:35.444Z,16.59
2018-10-19T00:02:39.581Z,16.59
2018-10-19T00:03:43.602Z,16.59
2018-10-19T00:04:47.692Z,16.59
2018-10-19T00:05:51.736Z,16.61
2018-10-19T00:06:55.898Z,16.61
2018-10-19T00:08:00.020Z,16.62
2018-10-19T00:09:05.519Z,16.60
2018-10-19T00:10:10.066Z,16.58
2018-10-19T00:11:14.262Z,16.56
2018-10-19T00:12:18.275Z,16.53
2018-10-19T00:13:22.327Z,16.50
2018-10-19T00:14:26.412Z,16.49
2018-10-19T00:15:30.535Z,16.48
2018-10-19T00:16:34.559Z,16.47
2018-10-19T00:17:38.597Z,16.47
2018-10-19T00:18:42.751Z,16.48
2018-10-19T00:19:46.795Z,16.46
2018-10-19T00:20:50.901Z,16.44
2018-10-19T00:21:54.956Z,16.44
2018-10-19T00:22:59.139Z,16.41
2018-10-19T00:24:03.220Z,16.41
2018-10-19T00:25:07.736Z,16.39
2018-10-19T00:26:11.916Z,16.39
2018-10-19T00:27:16.135Z,16.39
2018-10-19T00:28:20.159Z,16.37
2018-10-19T00:29:24.265Z,16.35
2018-10-19T00:30:28.302Z,16.36
2018-10-19T00:31:32.446Z,16.38
2018-10-19T00:32:36.541Z,16.39
2018-10-19T00:33:40.839Z,16.41
2018-10-19T00:34:44.909Z,16.41
2018-10-19T00:35:49.073Z,16.42
2018-10-19T00:36:53.328Z,16.40
2018-10-19T00:37:57.248Z,16.42
2018-10-19T00:39:01.362Z,16.42
2018-10-19T00:40:05.685Z,16.42
2018-10-19T00:41:09.803Z,16.40
2018-10-19T00:42:13.966Z,16.40
2018-10-19T00:43:18.037Z,16.37
2018-10-19T00:44:22.193Z,16.36
2018-10-19T00:45:31.540Z,16.35
2018-10-19T00:46:35.599Z,16.33
2018-10-19T00:47:39.755Z,16.34
2018-10-19T00:48:43.797Z,16.34
2018-10-19T00:49:48.029Z,16.35
2018-10-19T00:50:52.194Z,16.34
2018-10-19T00:51:56.226Z,16.32
2018-10-19T00:53:00.454Z,16.32
2018-10-19T00:54:04.448Z,16.33
2018-10-19T00:55:08.508Z,16.32
2018-10-19T00:56:12.692Z,16.32
2018-10-19T00:57:16.879Z,16.34
2018-10-19T00:58:20.923Z,16.35
2018-10-19T00:59:24.939Z,16.36
2018-10-19T01:00:29.040Z,16.35
2018-10-19T01:01:33.099Z,16.36
2018-10-19T01:02:37.154Z,16.36
2018-10-19T01:03:41.318Z,16.36
2018-10-19T01:04:45.389Z,16.38
2018-10-19T01:05:49.423Z,16.38
2018-10-19T01:06:53.547Z,16.38
2018-10-19T01:07:57.605Z,16.39
2018-10-19T01:09:01.800Z,16.41
2018-10-19T01:10:06.175Z,16.41
2018-10-19T01:11:10.269Z,16.42
2018-10-19T01:12:14.290Z,16.42
2018-10-19T01:13:18.387Z,16.42
2018-10-19T01:14:22.472Z,16.42
2018-10-19T01:15:27.881Z,16.41
2018-10-19T01:16:32.117Z,16.39
2018-10-19T01:17:36.673Z,16.39
2018-10-19T01:18:40.725Z,16.37
2018-10-19T01:19:44.898Z,16.35
2018-10-19T01:20:48.914Z,16.34
2018-10-19T01:21:52.953Z,16.33
2018-10-19T01:22:57.065Z,16.31
2018-10-19T01:24:01.064Z,16.31
2018-10-19T01:25:05.510Z,16.30
2018-10-19T01:26:09.540Z,16.31
2018-10-19T01:27:13.647Z,16.31
2018-10-19T01:28:17.837Z,16.31
2018-10-19T01:29:21.961Z,16.31
2018-10-19T01:30:26.063Z,16.31
2018-10-19T01:31:30.149Z,16.31
2018-10-19T01:32:34.168Z,16.30
2018-10-19T01:33:38.272Z,16.30
2018-10-19T01:34:42.474Z,16.30
2018-10-19T01:35:46.641Z,16.28
2018-10-19T01:36:50.737Z,16.27
2018-10-19T01:37:55.249Z,16.28
2018-10-19T01:38:59.303Z,16.28
2018-10-19T01:40:03.567Z,16.28
2018-10-19T01:41:07.698Z,16.27
2018-10-19T01:42:11.814Z,16.29
2018-10-19T01:43:15.847Z,16.29
2018-10-19T01:44:20.016Z,16.27
2018-10-19T01:45:24.118Z,16.26
2018-10-19T01:46:28.262Z,16.27
2018-10-19T01:47:32.356Z,16.27
2018-10-19T01:48:36.451Z,16.25
2018-10-19T01:49:40.551Z,16.24
2018-10-19T01:50:44.642Z,16.24
2018-10-19T01:51:48.668Z,16.24
2018-10-19T01:52:52.986Z,16.24
2018-10-19T01:53:57.071Z,16.24
2018-10-19T01:55:01.167Z,16.23
2018-10-19T01:56:05.316Z,16.25
2018-10-19T01:57:09.425Z,16.25
2018-10-19T01:58:13.646Z,16.25
2018-10-19T01:59:17.790Z,16.25
2018-10-19T02:00:21.815Z,16.26
2018-10-19T02:01:26.041Z,16.25
2018-10-19T02:02:30.097Z,16.25
2018-10-19T02:03:34.168Z,16.25
2018-10-19T02:04:38.294Z,16.27
2018-10-19T02:05:42.419Z,16.26
2018-10-19T02:06:46.452Z,16.27
2018-10-19T02:07:50.539Z,16.26
2018-10-19T02:08:54.602Z,16.27
2018-10-19T02:09:58.675Z,16.26
2018-10-19T02:11:02.763Z,16.26
2018-10-19T02:12:07.102Z,16.26
2018-10-19T02:13:11.204Z,16.26
2018-10-19T02:14:15.260Z,16.26
2018-10-19T02:15:19.443Z,16.24
2018-10-19T02:16:23.632Z,16.23
2018-10-19T02:17:27.670Z,16.22
2018-10-19T02:18:31.795Z,16.21
2018-10-19T02:19:36.499Z,16.20
2018-10-19T02:20:40.584Z,16.19
2018-10-19T02:21:44.663Z,16.18
2018-10-19T02:22:48.790Z,16.16
2018-10-19T02:23:52.952Z,16.16
2018-10-19T02:24:57.033Z,16.13
2018-10-19T02:26:01.065Z,16.12
2018-10-19T02:27:05.522Z,16.12
2018-10-19T02:28:09.556Z,16.12
2018-10-19T02:29:13.645Z,16.13
2018-10-19T02:30:17.739Z,16.15
2018-10-19T02:31:21.890Z,16.18
2018-10-19T02:32:26.058Z,16.20
2018-10-19T02:33:30.142Z,16.21
2018-10-19T02:34:34.240Z,16.21
2018-10-19T02:35:38.558Z,16.22
2018-10-19T02:36:42.697Z,16.21
2018-10-19T02:37:46.877Z,16.22
2018-10-19T02:38:51.296Z,16.23
2018-10-19T02:39:55.302Z,16.24
2018-10-19T02:40:59.659Z,16.25
2018-10-19T02:42:03.934Z,16.26
2018-10-19T02:43:08.008Z,16.26
2018-10-19T02:44:12.126Z,16.27
2018-10-19T02:45:16.235Z,16.28
2018-10-19T02:46:20.586Z,16.28
2018-10-19T02:47:24.732Z,16.27
2018-10-19T02:48:28.733Z,16.27
2018-10-19T02:49:32.783Z,16.27
2018-10-19T02:50:36.835Z,16.27
2018-10-19T02:51:40.844Z,16.27
2018-10-19T02:52:44.951Z,16.28
2018-10-19T02:53:49.024Z,16.29
2018-10-19T02:54:53.267Z,16.29
2018-10-19T02:55:57.347Z,16.29
2018-10-19T02:57:01.476Z,16.30
2018-10-19T02:58:05.460Z,16.31
2018-10-19T02:59:09.670Z,16.31
2018-10-19T03:00:13.658Z,16.33
2018-10-19T03:01:17.855Z,16.32
2018-10-19T03:02:21.930Z,16.30
2018-10-19T03:03:26.141Z,16.30
2018-10-19T03:04:30.166Z,16.29
2018-10-19T03:05:34.185Z,16.31
2018-10-19T03:06:38.207Z,16.31
2018-10-19T03:07:42.316Z,16.30
2018-10-19T03:08:46.345Z,16.30
2018-10-19T03:09:50.373Z,16.29
2018-10-19T03:10:54.481Z,16.28
2018-10-19T03:11:58.550Z,16.27
2018-10-19T03:13:02.728Z,16.27
2018-10-19T03:14:07.022Z,16.24
2018-10-19T03:15:11.109Z,16.25
2018-10-19T03:16:15.078Z,16.24
2018-10-19T03:17:19.273Z,16.23
2018-10-19T03:18:23.327Z,16.23
2018-10-19T03:19:27.486Z,16.23
2018-10-19T03:20:31.506Z,16.23
2018-10-19T03:21:35.584Z,16.24
2018-10-19T03:22:39.635Z,16.25
2018-10-19T03:23:43.671Z,16.25
2018-10-19T03:24:47.910Z,16.26
2018-10-19T03:25:58.257Z,16.25
2018-10-19T03:27:02.450Z,16.24
2018-10-19T03:28:06.404Z,16.23
2018-10-19T03:29:10.560Z,16.23
2018-10-19T03:30:14.620Z,16.23
2018-10-19T03:31:18.812Z,16.22
2018-10-19T03:32:22.738Z,16.23
2018-10-19T03:33:26.840Z,16.22
2018-10-19T03:34:30.899Z,16.23
2018-10-19T03:35:34.940Z,16.22
2018-10-19T03:36:39.201Z,16.23
2018-10-19T03:37:43.288Z,16.23
2018-10-19T03:38:47.397Z,16.22
2018-10-19T03:39:51.595Z,16.21
2018-10-19T03:40:55.596Z,16.21
2018-10-19T03:41:59.708Z,16.23
2018-10-19T03:43:04.340Z,16.22
2018-10-19T03:44:08.392Z,16.22
2018-10-19T03:45:12.496Z,16.23
2018-10-19T03:46:16.566Z,16.24
2018-10-19T03:47:20.688Z,16.25
2018-10-19T03:48:24.714Z,16.25
2018-10-19T03:49:28.837Z,16.25
2018-10-19T03:50:32.920Z,16.25
2018-10-19T03:51:37.010Z,16.26
2018-10-19T03:52:40.991Z,16.26
2018-10-19T03:53:45.069Z,16.27
2018-10-19T03:54:49.281Z,16.28
2018-10-19T03:55:53.317Z,16.27
2018-10-19T03:56:57.417Z,16.28
2018-10-19T03:58:01.553Z,16.28
2018-10-19T03:59:06.082Z,16.29
2018-10-19T04:00:10.009Z,16.29
2018-10-19T04:01:14.080Z,16.31
2018-10-19T04:02:18.187Z,16.31
2018-10-19T04:03:22.875Z,16.34
2018-10-19T04:04:27.061Z,16.32
2018-10-19T04:05:31.329Z,16.31
2018-10-19T04:06:35.348Z,16.30
2018-10-19T04:07:39.435Z,16.26
2018-10-19T04:08:43.480Z,16.25
2018-10-19T04:09:47.713Z,16.24
2018-10-19T04:10:51.735Z,16.24
2018-10-19T04:11:55.797Z,16.23
2018-10-19T04:12:59.816Z,16.22
2018-10-19T04:14:03.906Z,16.22
2018-10-19T04:15:08.932Z,16.23
2018-10-19T04:16:12.902Z,16.23
2018-10-19T04:17:17.114Z,16.22
2018-10-19T04:18:21.204Z,16.21
2018-10-19T04:19:25.335Z,16.21
2018-10-19T04:20:29.395Z,16.21
2018-10-19T04:21:33.877Z,16.19
2018-10-19T04:22:37.934Z,16.21
2018-10-19T04:23:42.103Z,16.21
2018-10-19T04:24:46.164Z,16.21
2018-10-19T04:25:50.231Z,16.20
2018-10-19T04:26:54.329Z,16.20
2018-10-19T04:27:58.355Z,16.19
2018-10-19T04:29:02.780Z,16.16
2018-10-19T04:30:07.600Z,16.17
2018-10-19T04:31:11.719Z,16.15
2018-10-19T04:32:15.868Z,16.15
2018-10-19T04:33:20.012Z,16.15
2018-10-19T04:34:24.178Z,16.18
2018-10-19T04:35:28.384Z,16.15
2018-10-19T04:36:32.677Z,16.15
2018-10-19T04:37:36.810Z,16.14
2018-10-19T04:38:40.827Z,16.12
2018-10-19T04:39:44.962Z,16.12
2018-10-19T04:40:49.005Z,16.12
2018-10-19T04:41:53.169Z,16.11
2018-10-19T04:42:57.238Z,16.10
2018-10-19T04:44:01.280Z,16.07
2018-10-19T04:45:05.900Z,16.04
2018-10-19T04:46:10.044Z,16.00
2018-10-19T04:47:14.254Z,15.99
2018-10-19T04:48:18.307Z,15.98
2018-10-19T04:49:22.368Z,15.97
2018-10-19T04:50:26.462Z,15.96
2018-10-19T04:51:30.495Z,15.95
2018-10-19T04:52:34.610Z,15.93
2018-10-19T04:53:38.691Z,15.93
2018-10-19T04:54:43.049Z,15.93
2018-10-19T04:55:47.205Z,15.93
2018-10-19T04:56:51.263Z,15.92
2018-10-19T04:57:55.334Z,15.91
2018-10-19T04:58:59.520Z,15.91
2018-10-19T05:00:03.549Z,15.90
2018-10-19T05:01:07.997Z,15.90
2018-10-19T05:02:12.290Z,15.87
2018-10-19T05:03:16.388Z,15.88
2018-10-19T05:04:20.532Z,15.86
2018-10-19T05:05:24.720Z,15.84
2018-10-19T05:06:28.930Z,15.83
2018-10-19T05:07:32.852Z,15.82
2018-10-19T05:08:37.015Z,15.82
2018-10-19T05:09:41.072Z,15.83
2018-10-19T05:10:45.283Z,15.83
2018-10-19T05:11:49.350Z,15.83
2018-10-19T05:12:53.421Z,15.81
2018-10-19T05:13:57.665Z,15.79
2018-10-19T05:15:01.627Z,15.78
2018-10-19T05:16:05.879Z,15.77
2018-10-19T05:17:10.573Z,15.75
2018-10-19T05:18:14.620Z,15.73
2018-10-19T05:19:18.745Z,15.68
2018-10-19T05:20:22.865Z,15.66
2018-10-19T05:21:26.929Z,15.65
2018-10-19T05:22:31.065Z,15.65
2018-10-19T05:23:35.124Z,15.64
2018-10-19T05:24:39.352Z,15.64
2018-10-19T05:25:43.469Z,15.62
2018-10-19T05:26:47.470Z,15.59
2018-10-19T05:27:51.533Z,15.60
2018-10-19T05:28:56.041Z,15.60
2018-10-19T05:30:00.080Z,15.57
2018-10-19T05:31:04.271Z,15.56
2018-10-19T05:32:08.443Z,15.55
2018-10-19T05:33:12.406Z,15.54
2018-10-19T05:34:16.431Z,15.54
2018-10-19T05:35:20.538Z,15.53
2018-10-19T05:36:24.793Z,15.51
2018-10-19T05:37:29.109Z,15.52
2018-10-19T05:38:33.323Z,15.49
2018-10-19T05:39:37.489Z,15.48
2018-10-19T05:40:41.549Z,15.49
2018-10-19T05:41:45.667Z,15.48
2018-10-19T05:42:49.754Z,15.47
2018-10-19T05:43:53.847Z,15.47
2018-10-19T05:44:58.102Z,15.47
2018-10-19T05:46:02.134Z,15.46
2018-10-19T05:47:06.488Z,15.43
2018-10-19T05:48:11.130Z,15.42
2018-10-19T05:49:15.740Z,15.41
2018-10-19T05:50:19.888Z,15.40
2018-10-19T05:51:23.987Z,15.39
2018-10-19T05:52:28.069Z,15.39
2018-10-19T05:53:32.775Z,15.39
2018-10-19T05:54:36.889Z,15.38
2018-10-19T05:55:40.937Z,15.38
2018-10-19T05:56:44.945Z,15.40
2018-10-19T05:57:49.015Z,15.41
2018-10-19T05:58:53.151Z,15.40
2018-10-19T05:59:57.154Z,15.41
2018-10-19T06:01:01.240Z,15.43
2018-10-19T06:02:06.143Z,15.43
2018-10-19T06:03:10.198Z,15.45
2018-10-19T06:04:14.262Z,15.44
2018-10-19T06:05:18.328Z,15.44
2018-10-19T06:06:22.419Z,15.43
2018-10-19T06:07:33.202Z,15.42
2018-10-19T06:08:37.316Z,15.42
2018-10-19T06:09:41.382Z,15.42
2018-10-19T06:10:45.453Z,15.40
2018-10-19T06:11:49.550Z,15.38
2018-10-19T06:12:53.551Z,15.36
2018-10-19T06:13:57.732Z,15.34
2018-10-19T06:15:01.835Z,15.34
2018-10-19T06:16:06.170Z,15.33
2018-10-19T06:17:10.239Z,15.31
2018-10-19T06:18:14.392Z,15.31
2018-10-19T06:19:18.450Z,15.32
2018-10-19T06:20:22.553Z,15.31
2018-10-19T06:21:26.700Z,15.31
2018-10-19T06:22:30.735Z,15.32
2018-10-19T06:23:34.791Z,15.31
2018-10-19T06:24:38.854Z,15.30
2018-10-19T06:25:42.911Z,15.27
2018-10-19T06:26:46.983Z,15.28
2018-10-19T06:27:51.145Z,15.29
2018-10-19T06:28:55.361Z,15.30
2018-10-19T06:29:59.792Z,15.28
2018-10-19T06:31:04.184Z,15.28
2018-10-19T06:32:08.377Z,15.29
2018-10-19T06:33:12.457Z,15.31
2018-10-19T06:34:16.472Z,15.31
2018-10-19T06:35:20.654Z,15.31
2018-10-19T06:36:24.852Z,15.32
2018-10-19T06:37:28.955Z,15.33
2018-10-19T06:38:33.324Z,15.34
2018-10-19T06:39:37.486Z,15.34
2018-10-19T06:40:41.552Z,15.35
2018-10-19T06:41:45.711Z,15.38
2018-10-19T06:42:50.260Z,15.39
2018-10-19T06:43:54.315Z,15.40
2018-10-19T06:44:58.446Z,15.41
2018-10-19T06:46:02.845Z,15.39
2018-10-19T06:47:07.030Z,15.38
2018-10-19T06:48:10.981Z,15.38
2018-10-19T06:49:15.053Z,15.38
2018-10-19T06:50:19.395Z,15.39
2018-10-19T06:51:23.363Z,15.40
2018-10-19T06:52:27.556Z,15.39
2018-10-19T06:53:31.758Z,15.39
2018-10-19T06:54:35.980Z,15.38
2018-10-19T06:55:40.168Z,15.39
2018-10-19T06:56:44.588Z,15.39
2018-10-19T06:57:48.622Z,15.40
2018-10-19T06:58:52.823Z,15.41
2018-10-19T06:59:56.893Z,15.44
2018-10-19T07:01:01.018Z,15.46
2018-10-19T07:02:05.549Z,15.47
2018-10-19T07:03:09.803Z,15.49
2018-10-19T07:04:13.867Z,15.50
2018-10-19T07:05:17.979Z,15.51
2018-10-19T07:06:22.147Z,15.49
2018-10-19T07:07:26.288Z,15.51
2018-10-19T07:08:30.637Z,15.51
2018-10-19T07:09:34.609Z,15.54
2018-10-19T07:10:38.689Z,15.57
2018-10-19T07:11:42.771Z,15.59
2018-10-19T07:12:46.909Z,15.60
2018-10-19T07:13:51.051Z,15.61
2018-10-19T07:14:55.159Z,15.62
2018-10-19T07:15:59.386Z,15.63
2018-10-19T07:17:03.496Z,15.64
2018-10-19T07:18:07.621Z,15.64
2018-10-19T07:19:11.733Z,15.62
2018-10-19T07:20:15.854Z,15.62
2018-10-19T07:21:20.772Z,15.62
2018-10-19T07:22:25.292Z,15.61
2018-10-19T07:23:29.504Z,15.57
2018-10-19T07:24:33.612Z,15.56
2018-10-19T07:25:37.847Z,15.54
2018-10-19T07:26:42.158Z,15.53
2018-10-19T07:27:46.413Z,15.54
2018-10-19T07:28:50.512Z,15.57
2018-10-19T07:29:54.616Z,15.60
2018-10-19T07:30:58.758Z,15.60
2018-10-19T07:32:02.947Z,15.61
2018-10-19T07:33:06.991Z,15.62
2018-10-19T07:34:11.024Z,15.66
2018-10-19T07:35:15.141Z,15.65
2018-10-19T07:36:19.260Z,15.65
2018-10-19T07:37:23.558Z,15.70
2018-10-19T07:38:28.007Z,15.72
2018-10-19T07:39:32.342Z,15.76
2018-10-19T07:40:36.636Z,15.79
2018-10-19T07:41:40.760Z,15.84
2018-10-19T07:42:44.977Z,15.88
2018-10-19T07:43:49.076Z,15.92
2018-10-19T07:44:53.183Z,15.96
2018-10-19T07:45:57.268Z,15.98
2018-10-19T07:47:01.520Z,16.00
2018-10-19T07:48:05.854Z,16.00
2018-10-19T07:49:09.687Z,16.03
2018-10-19T07:50:13.916Z,16.03
2018-10-19T07:51:17.950Z,16.04
2018-10-19T07:52:22.132Z,16.07
2018-10-19T07:53:26.265Z,16.09
2018-10-19T07:54:30.437Z,16.11
2018-10-19T07:55:35.330Z,16.12
2018-10-19T07:56:39.456Z,16.11
2018-10-19T07:57:43.612Z,16.09
2018-10-19T07:58:47.705Z,16.11
2018-10-19T07:59:51.855Z,16.12
2018-10-19T08:00:56.056Z,16.14
2018-10-19T08:02:00.117Z,16.16
2018-10-19T08:03:04.467Z,16.16
2018-10-19T08:04:08.566Z,16.19
2018-10-19T08:05:12.682Z,16.21
2018-10-19T08:06:16.756Z,16.23
2018-10-19T08:07:20.870Z,16.27
2018-10-19T08:08:25.189Z,16.28
2018-10-19T08:09:29.333Z,16.30
2018-10-19T08:10:33.485Z,16.30
2018-10-19T08:11:37.773Z,16.31
2018-10-19T08:12:41.775Z,16.32
2018-10-19T08:13:46.029Z,16.34
2018-10-19T08:14:50.212Z,16.33
2018-10-19T08:15:54.379Z,16.35
2018-10-19T08:16:58.522Z,16.35
2018-10-19T08:18:02.764Z,16.38
2018-10-19T08:19:06.888Z,16.40
2018-10-19T08:20:11.396Z,16.40
2018-10-19T08:21:15.559Z,16.40
2018-10-19T08:22:20.881Z,16.40
2018-10-19T08:23:25.062Z,16.41
2018-10-19T08:24:29.108Z,16.42
2018-10-19T08:25:33.233Z,16.41
2018-10-19T08:26:37.452Z,16.43
2018-10-19T08:27:41.758Z,16.43
2018-10-19T08:28:45.784Z,16.44
2018-10-19T08:29:49.934Z,16.46
2018-10-19T08:30:54.273Z,16.48
2018-10-19T08:31:59.606Z,16.49
2018-10-19T08:33:03.625Z,16.52
2018-10-19T08:34:07.781Z,16.54
2018-10-19T08:35:11.915Z,16.57
2018-10-19T08:36:15.963Z,16.57
2018-10-19T08:37:20.146Z,16.60
2018-10-19T08:38:24.416Z,16.60
2018-10-19T08:39:28.654Z,16.61
2018-10-19T08:40:32.955Z,16.62
2018-10-19T08:41:37.198Z,16.62
2018-10-19T08:42:41.225Z,16.64
2018-10-19T08:43:45.643Z,16.65
2018-10-19T08:44:49.746Z,16.67
2018-10-19T08:45:53.968Z,16.69
2018-10-19T08:46:57.988Z,16.71
2018-10-19T08:48:02.211Z,16.73
2018-10-19T08:49:07.821Z,16.76
2018-10-19T08:50:11.868Z,16.80
2018-10-19T08:51:16.143Z,16.83
2018-10-19T08:52:20.270Z,16.85
2018-10-19T08:53:24.424Z,16.89
2018-10-19T08:54:28.542Z,16.89
2018-10-19T08:55:32.642Z,16.91
2018-10-19T08:56:36.659Z,16.91
2018-10-19T08:57:40.776Z,16.93
2018-10-19T08:58:44.842Z,16.93
2018-10-19T08:59:49.237Z,16.94
2018-10-19T09:00:53.456Z,16.96
2018-10-19T09:01:57.669Z,16.96
2018-10-19T09:03:01.981Z,16.95
2018-10-19T09:04:06.064Z,16.95
2018-10-19T09:05:10.246Z,16.96
2018-10-19T09:06:14.404Z,16.99
2018-10-19T09:07:18.459Z,17.00
2018-10-19T09:08:22.599Z,17.00
2018-10-19T09:09:26.785Z,17.00
2018-10-19T09:10:31.203Z,16.99
2018-10-19T09:11:35.389Z,16.99
2018-10-19T09:12:39.545Z,17.00
2018-10-19T09:13:43.501Z,16.98
2018-10-19T09:14:57.868Z,16.96
2018-10-19T09:16:02.028Z,16.94
2018-10-19T09:17:06.217Z,16.93
2018-10-19T09:18:10.462Z,16.94
2018-10-19T09:19:14.531Z,16.96
2018-10-19T09:20:18.569Z,16.97
2018-10-19T09:21:22.612Z,16.96
2018-10-19T09:22:26.780Z,16.95
2018-10-19T09:23:30.833Z,16.95
2018-10-19T09:24:34.854Z,16.96
2018-10-19T09:25:38.913Z,16.96
2018-10-19T09:26:44.192Z,16.99
2018-10-19T09:27:48.259Z,17.00
2018-10-19T09:28:52.476Z,17.03
2018-10-19T09:29:56.583Z,17.06
2018-10-19T09:31:00.638Z,17.09
2018-10-19T09:32:05.241Z,17.11
2018-10-19T09:33:09.643Z,17.13
2018-10-19T09:34:13.732Z,17.14
2018-10-19T09:35:24.200Z,17.14
2018-10-19T09:36:28.453Z,17.14
2018-10-19T09:37:32.397Z,17.14
2018-10-19T09:38:36.424Z,17.14
2018-10-19T09:39:40.549Z,17.13
2018-10-19T09:40:44.987Z,17.11
2018-10-19T09:41:49.054Z,17.07
2018-10-19T09:42:53.151Z,17.04
2018-10-19T09:43:57.268Z,17.02
2018-10-19T09:45:01.448Z,17.03
2018-10-19T09:46:05.734Z,17.04
2018-10-19T09:47:09.872Z,17.08
2018-10-19T09:48:13.942Z,17.11
2018-10-19T09:49:18.067Z,17.14
2018-10-19T09:50:22.181Z,17.15
2018-10-19T09:51:26.313Z,17.16
2018-10-19T09:52:31.112Z,17.18
2018-10-19T09:53:35.189Z,17.16
2018-10-19T09:54:39.284Z,17.16
2018-10-19T09:55:43.453Z,17.15
2018-10-19T09:56:47.582Z,17.14
2018-10-19T09:57:51.677Z,17.13
2018-10-19T09:58:55.836Z,17.11
2018-10-19T09:59:59.940Z,17.09
2018-10-19T10:01:08.197Z,17.09
2018-10-19T10:02:12.235Z,17.08
2018-10-19T10:03:16.363Z,17.07
2018-10-19T10:04:20.396Z,17.05
2018-10-19T10:05:24.493Z,17.03
2018-10-19T10:06:29.128Z,17.03
2018-10-19T10:07:33.165Z,17.02
2018-10-19T10:08:37.207Z,17.00
2018-10-19T10:09:41.259Z,17.00
2018-10-19T10:10:45.356Z,16.98
2018-10-19T10:11:49.482Z,16.97
2018-10-19T10:12:53.617Z,16.95
2018-10-19T10:13:57.699Z,16.95
2018-10-19T10:15:02.011Z,16.92
2018-10-19T10:16:05.998Z,16.92
2018-10-19T10:17:10.139Z,16.91
2018-10-19T10:18:14.099Z,16.88
2018-10-19T10:19:18.188Z,16.88
2018-10-19T10:20:22.241Z,16.88
2018-10-19T10:21:26.306Z,16.87
2018-10-19T10:22:30.471Z,16.86
2018-10-19T10:23:34.721Z,16.87
2018-10-19T10:24:38.762Z,16.88
2018-10-19T10:25:43.105Z,16.90
2018-10-19T10:26:47.281Z,16.91
2018-10-19T10:27:51.431Z,16.92
2018-10-19T10:28:55.747Z,16.92
2018-10-19T10:29:59.869Z,16.92
2018-10-19T10:31:06.652Z,16.93
2018-10-19T10:32:10.654Z,16.95
2018-10-19T10:33:14.800Z,16.95
2018-10-19T10:34:19.269Z,16.96
2018-10-19T10:35:23.438Z,16.97
2018-10-19T10:36:27.591Z,16.99
2018-10-19T10:37:31.819Z,17.00
2018-10-19T10:38:35.991Z,17.01
2018-10-19T10:39:40.055Z,17.01
2018-10-19T10:40:44.367Z,17.03
2018-10-19T10:41:48.466Z,17.03
2018-10-19T10:42:52.734Z,17.03
2018-10-19T10:43:57.011Z,17.03
2018-10-19T10:45:01.261Z,17.02
2018-10-19T10:46:05.743Z,16.99
2018-10-19T10:47:09.929Z,16.99
2018-10-19T10:48:13.955Z,17.00
2018-10-19T10:49:18.048Z,17.02
2018-10-19T10:50:22.229Z,17.01
2018-10-19T10:51:26.415Z,17.03
2018-10-19T10:52:30.542Z,17.02
2018-10-19T10:53:34.632Z,17.04
2018-10-19T10:54:38.776Z,17.04
2018-10-19T10:55:42.878Z,17.07
2018-10-19T10:56:46.851Z,17.09
2018-10-19T10:57:51.031Z,17.12
2018-10-19T10:58:55.472Z,17.14
2018-10-19T10:59:59.570Z,17.18
2018-10-19T11:01:06.449Z,17.20
2018-10-19T11:02:10.741Z,17.22
2018-10-19T11:03:14.872Z,17.24
2018-10-19T11:04:19.172Z,17.22
2018-10-19T11:05:23.256Z,17.24
2018-10-19T11:06:27.408Z,17.23
2018-10-19T11:07:31.703Z,17.22
2018-10-19T11:08:35.614Z,17.21
2018-10-19T11:09:39.880Z,17.22
2018-10-19T11:10:43.913Z,17.24
2018-10-19T11:11:48.054Z,17.24
2018-10-19T11:12:52.216Z,17.24
2018-10-19T11:13:56.284Z,17.22
2018-10-19T11:15:00.321Z,17.25
2018-10-19T11:16:04.896Z,17.27
2018-10-19T11:17:08.990Z,17.30
2018-10-19T11:18:13.448Z,17.32
2018-10-19T11:19:17.661Z,17.36
2018-10-19T11:20:21.908Z,17.39
2018-10-19T11:21:26.067Z,17.42
2018-10-19T11:22:30.118Z,17.44
2018-10-19T11:23:34.515Z,17.48
2018-10-19T11:24:38.841Z,17.51
2018-10-19T11:25:42.811Z,17.56
2018-10-19T11:26:47.146Z,17.57
2018-10-19T11:27:51.195Z,17.60
2018-10-19T11:28:55.973Z,17.62
2018-10-19T11:30:00.109Z,17.64
2018-10-19T11:31:04.505Z,17.63
2018-10-19T11:32:08.591Z,17.61
2018-10-19T11:33:12.699Z,17.60
2018-10-19T11:34:16.828Z,17.61
2018-10-19T11:35:20.891Z,17.64
2018-10-19T11:36:24.964Z,17.67
2018-10-19T11:37:29.104Z,17.69
2018-10-19T11:38:33.082Z,17.73
2018-10-19T11:39:46.704Z,17.75
2018-10-19T11:40:50.897Z,17.78
2018-10-19T11:41:55.016Z,17.82
2018-10-19T11:42:59.143Z,17.85
2018-10-19T11:44:03.344Z,17.86
2018-10-19T11:45:07.532Z,17.88
2018-10-19T11:46:11.712Z,17.92
2018-10-19T11:47:15.787Z,17.94
2018-10-19T11:48:19.872Z,17.98
2018-10-19T11:49:23.998Z,18.02
2018-10-19T11:50:28.041Z,18.06
2018-10-19T11:51:32.140Z,18.11
2018-10-19T11:52:36.337Z,18.15
2018-10-19T11:53:40.398Z,18.19
2018-10-19T11:54:44.474Z,18.23
2018-10-19T11:55:48.583Z,18.27
2018-10-19T11:56:52.669Z,18.32
2018-10-19T11:57:56.833Z,18.34
2018-10-19T11:59:00.912Z,18.37
2018-10-19T12:00:05.144Z,18.39
2018-10-19T12:01:09.249Z,18.41
2018-10-19T12:02:13.284Z,18.45
2018-10-19T12:03:17.338Z,18.48
2018-10-19T12:04:21.468Z,18.52
2018-10-19T12:05:25.672Z,18.55
2018-10-19T12:06:29.752Z,18.57
2018-10-19T12:07:33.909Z,18.57
2018-10-19T12:08:38.111Z,18.57
2018-10-19T12:09:42.335Z,18.57
2018-10-19T12:10:46.392Z,18.57
2018-10-19T12:11:50.419Z,18.57
2018-10-19T12:12:54.651Z,18.55
2018-10-19T12:13:58.742Z,18.55
2018-10-19T12:15:02.961Z,18.54
2018-10-19T12:16:07.430Z,18.52
2018-10-19T12:17:11.456Z,18.51
2018-10-19T12:18:15.542Z,18.49
2018-10-19T12:19:19.731Z,18.48
2018-10-19T12:20:24.007Z,18.48
2018-10-19T12:21:28.205Z,18.47
2018-10-19T12:22:33.227Z,18.48
2018-10-19T12:23:37.658Z,18.49
2018-10-19T12:24:42.022Z,18.50
2018-10-19T12:25:46.471Z,18.52
2018-10-19T12:26:51.088Z,18.55
2018-10-19T12:27:55.370Z,18.56
2018-10-19T12:28:59.745Z,18.57
2018-10-19T12:30:04.195Z,18.56
2018-10-19T12:31:09.202Z,18.53
2018-10-19T12:32:13.467Z,18.55
2018-10-19T12:33:17.760Z,18.57
2018-10-19T12:34:22.182Z,18.63
2018-10-19T12:35:26.584Z,18.68
2018-10-19T12:36:30.890Z,18.69
2018-10-19T12:37:35.188Z,18.74
2018-10-19T12:38:39.316Z,18.77
2018-10-19T12:39:43.389Z,18.80
2018-10-19T12:40:48.399Z,18.81
2018-10-19T12:41:53.486Z,18.83
2018-10-19T12:42:57.934Z,18.86
2018-10-19T12:44:02.281Z,18.90
2018-10-19T12:45:12.695Z,18.96
2018-10-19T12:46:30.525Z,18.99
2018-10-19T12:47:39.519Z,19.01
2018-10-19T12:48:50.653Z,19.03
2018-10-19T12:49:54.995Z,19.06
2018-10-19T12:51:00.541Z,19.10
2018-10-19T12:52:05.290Z,19.11
2018-10-19T12:53:09.906Z,19.10
2018-10-19T12:54:15.366Z,19.09
2018-10-19T12:55:19.936Z,19.07
2018-10-19T12:56:24.335Z,19.05
2018-10-19T12:57:28.485Z,19.04
2018-10-19T12:58:32.513Z,19.03
2018-10-19T12:59:37.205Z,19.01
2018-10-19T13:00:41.322Z,18.97
2018-10-19T13:01:45.483Z,18.96
2018-10-19T13:02:49.590Z,18.93
2018-10-19T13:03:53.864Z,18.90
2018-10-19T13:04:57.926Z,18.86
2018-10-19T13:06:02.188Z,18.82
2018-10-19T13:07:07.077Z,18.78
2018-10-19T13:08:11.118Z,18.75
2018-10-19T13:09:15.349Z,18.72
2018-10-19T13:10:19.355Z,18.70
2018-10-19T13:11:30.249Z,18.67
2018-10-19T13:12:34.316Z,18.63
2018-10-19T13:13:38.524Z,18.61
2018-10-19T13:14:42.605Z,18.58
2018-10-19T13:15:46.630Z,18.55
2018-10-19T13:16:50.736Z,18.51
2018-10-19T13:17:54.877Z,18.49
2018-10-19T13:18:58.979Z,18.45
2018-10-19T13:20:03.149Z,18.42
2018-10-19T13:21:07.386Z,18.39
2018-10-19T13:22:11.854Z,18.37
2018-10-19T13:23:16.315Z,18.36
2018-10-19T13:24:20.697Z,18.35
2018-10-19T13:25:25.166Z,18.34
2018-10-19T13:26:29.638Z,18.33
2018-10-19T13:27:33.752Z,18.36
2018-10-19T13:28:37.935Z,18.36
2018-10-19T13:29:42.036Z,18.37
2018-10-19T13:30:46.097Z,18.39
2018-10-19T13:31:50.236Z,18.41
2018-10-19T13:32:55.242Z,18.45
2018-10-19T13:33:59.291Z,18.48
2018-10-19T13:35:03.530Z,18.51
2018-10-19T13:36:07.617Z,18.55
2018-10-19T13:37:11.739Z,18.59
2018-10-19T13:38:15.837Z,18.63
2018-10-19T13:39:19.913Z,18.66
2018-10-19T13:40:23.993Z,18.68
2018-10-19T13:41:28.107Z,18.70
2018-10-19T13:42:32.568Z,18.71
2018-10-19T13:43:37.060Z,18.73
2018-10-19T13:44:41.165Z,18.73
2018-10-19T13:45:45.407Z,18.74
2018-10-19T13:46:49.487Z,18.75
2018-10-19T13:47:53.691Z,18.76